createdAt,value
2019-03-16T00:00:27.088Z,5.90
2019-03-16T00:02:53.661Z,5.40
2019-03-16T00:05:20.234Z,3.55
2019-03-16T00:07:46.861Z,2.72
2019-03-16T00:10:13.432Z,4.10
2019-03-16T00:12:40.047Z,3.70
2019-03-16T00:15:06.628Z,5.87
2019-03-16T00:17:33.261Z,5.67
2019-03-16T00:19:59.830Z,5.50
2019-03-16T00:22:26.438Z,4.75
2019-03-16T00:24:53.186Z,5.87
2019-03-16T00:27:19.791Z,7.17
2019-03-16T00:29:46.361Z,7.20
2019-03-16T00:32:13.910Z,4.03
2019-03-16T00:34:40.601Z,3.67
2019-03-16T00:37:07.170Z,1.77
2019-03-16T00:39:33.776Z,3.70
2019-03-16T00:42:00.355Z,3.45
2019-03-16T00:44:26.932Z,2.52
2019-03-16T00:46:53.505Z,2.33
2019-03-16T00:49:20.095Z,1.85
2019-03-16T00:51:46.661Z,3.00
2019-03-16T00:54:13.242Z,1.42
2019-03-16T00:56:39.811Z,2.45
2019-03-16T00:59:06.387Z,2.33
2019-03-16T01:01:32.966Z,2.80
2019-03-16T01:03:59.547Z,2.02
2019-03-16T01:06:26.117Z,1.30
2019-03-16T01:08:52.687Z,3.08
2019-03-16T01:11:19.282Z,3.67
2019-03-16T01:13:45.874Z,1.77
2019-03-16T01:16:12.440Z,2.33
2019-03-16T01:18:39.036Z,2.12
2019-03-16T01:21:05.615Z,1.92
2019-03-16T01:23:32.232Z,2.27
2019-03-16T01:25:58.808Z,3.40
2019-03-16T01:28:27.030Z,2.33
2019-03-16T01:30:53.604Z,6.70
2019-03-16T01:33:20.315Z,2.52
2019-03-16T01:35:46.887Z,3.67
2019-03-16T01:38:13.493Z,1.80
2019-03-16T01:40:40.067Z,1.77
2019-03-16T01:43:06.659Z,2.17
2019-03-16T01:45:33.312Z,3.12
2019-03-16T01:47:59.905Z,1.07
2019-03-16T01:50:26.470Z,4.12
2019-03-16T01:52:53.117Z,0.82
2019-03-16T01:55:19.735Z,1.42
2019-03-16T01:57:46.338Z,3.90
2019-03-16T02:00:12.899Z,2.15
2019-03-16T02:02:39.555Z,1.60
2019-03-16T02:05:06.129Z,2.85
2019-03-16T02:07:32.713Z,2.22
2019-03-16T02:09:59.283Z,1.75
2019-03-16T02:12:25.875Z,0.70
2019-03-16T02:14:52.441Z,4.45
2019-03-16T02:17:19.033Z,1.57
2019-03-16T02:19:45.599Z,2.77
2019-03-16T02:22:12.264Z,2.15
2019-03-16T02:24:38.870Z,4.95
2019-03-16T02:27:05.447Z,2.33
2019-03-16T02:29:32.031Z,1.62
2019-03-16T02:31:58.609Z,1.35
2019-03-16T02:34:25.231Z,3.12
2019-03-16T02:36:51.851Z,1.47
2019-03-16T02:39:18.537Z,1.90
2019-03-16T02:41:45.109Z,1.57
2019-03-16T02:44:11.789Z,1.57
2019-03-16T02:46:38.363Z,2.40
2019-03-16T02:49:04.944Z,1.32
2019-03-16T02:51:31.539Z,1.20
2019-03-16T02:53:58.208Z,1.92
2019-03-16T02:56:24.781Z,1.45
2019-03-16T02:58:51.408Z,2.75
2019-03-16T03:01:17.981Z,1.95
2019-03-16T03:03:45.287Z,1.47
2019-03-16T03:06:11.877Z,2.58
2019-03-16T03:08:38.575Z,2.42
2019-03-16T03:11:05.138Z,2.30
2019-03-16T03:13:31.744Z,2.67
2019-03-16T03:15:58.319Z,2.70
2019-03-16T03:18:24.922Z,2.75
2019-03-16T03:20:51.498Z,3.77
2019-03-16T03:23:18.248Z,3.20
2019-03-16T03:25:44.861Z,2.70
2019-03-16T03:28:11.430Z,1.72
2019-03-16T03:30:38.005Z,3.58
2019-03-16T03:33:04.591Z,4.72
2019-03-16T03:35:31.156Z,3.22
2019-03-16T03:37:57.714Z,3.67
2019-03-16T03:40:24.299Z,4.40
2019-03-16T03:42:50.871Z,4.22
2019-03-16T03:45:17.444Z,3.42
2019-03-16T03:47:44.026Z,1.85
2019-03-16T03:50:10.615Z,2.55
2019-03-16T03:52:37.213Z,7.00
2019-03-16T03:55:03.848Z,3.40
2019-03-16T03:57:30.426Z,4.25
2019-03-16T03:59:57.006Z,8.55
2019-03-16T04:02:23.590Z,2.00
2019-03-16T04:04:50.159Z,3.00
2019-03-16T04:07:20.086Z,2.90
2019-03-16T04:09:45.075Z,2.63
2019-03-16T04:12:11.640Z,0.97
2019-03-16T04:14:38.233Z,1.80
2019-03-16T04:17:04.813Z,1.23
2019-03-16T04:19:31.385Z,3.93
2019-03-16T04:21:57.956Z,2.57
2019-03-16T04:24:24.572Z,0.90
2019-03-16T04:26:51.147Z,3.50
2019-03-16T04:29:17.741Z,1.60
2019-03-16T04:31:44.318Z,1.30
2019-03-16T04:34:10.900Z,2.53
2019-03-16T04:36:37.480Z,4.03
2019-03-16T04:39:04.088Z,4.13
2019-03-16T04:41:30.663Z,3.83
2019-03-16T04:43:57.279Z,2.73
2019-03-16T04:46:23.845Z,3.60
2019-03-16T04:48:50.495Z,2.13
2019-03-16T04:51:17.075Z,4.83
2019-03-16T04:53:43.641Z,3.73
2019-03-16T04:56:10.210Z,5.67
2019-03-16T04:58:36.785Z,6.37
2019-03-16T05:01:03.359Z,4.27
2019-03-16T05:03:29.928Z,4.80
2019-03-16T05:05:56.510Z,4.10
2019-03-16T05:08:23.067Z,2.60
2019-03-16T05:10:49.642Z,3.33
2019-03-16T05:13:16.205Z,7.67
2019-03-16T05:15:42.781Z,5.77
2019-03-16T05:18:09.352Z,3.83
2019-03-16T05:20:35.918Z,2.77
2019-03-16T05:23:02.495Z,9.43
2019-03-16T05:25:29.089Z,10.97
2019-03-16T05:27:55.666Z,15.47
2019-03-16T05:30:22.277Z,10.03
2019-03-16T05:32:48.845Z,10.23
2019-03-16T05:35:15.456Z,12.63
2019-03-16T05:37:42.034Z,14.83
2019-03-16T05:40:08.644Z,11.53
2019-03-16T05:42:35.217Z,13.37
2019-03-16T05:45:01.812Z,17.13
2019-03-16T05:47:28.379Z,23.87
2019-03-16T05:49:54.970Z,21.10
2019-03-16T05:52:21.565Z,22.50
2019-03-16T05:54:48.186Z,20.40
2019-03-16T05:57:14.752Z,13.90
2019-03-16T05:59:41.347Z,11.90
2019-03-16T06:02:07.922Z,7.73
2019-03-16T06:04:34.515Z,7.90
2019-03-16T06:07:01.095Z,5.53
2019-03-16T06:09:27.708Z,6.47
2019-03-16T06:11:54.302Z,10.15
2019-03-16T06:14:20.870Z,12.97
2019-03-16T06:16:47.447Z,14.30
2019-03-16T06:19:14.026Z,15.00
2019-03-16T06:21:40.590Z,16.93
2019-03-16T06:24:07.226Z,16.52
2019-03-16T06:26:33.807Z,12.58
2019-03-16T06:29:00.457Z,10.98
2019-03-16T06:31:27.029Z,9.50
2019-03-16T06:33:53.680Z,8.95
2019-03-16T06:36:20.257Z,6.37
2019-03-16T06:38:46.834Z,8.15
2019-03-16T06:41:13.402Z,10.20
2019-03-16T06:43:39.981Z,9.78
2019-03-16T06:46:06.546Z,6.50
2019-03-16T06:48:33.125Z,11.83
2019-03-16T06:50:59.691Z,14.30
2019-03-16T06:53:26.266Z,9.30
2019-03-16T06:55:52.839Z,9.40
2019-03-16T06:58:19.419Z,10.20
2019-03-16T07:00:45.996Z,15.90
2019-03-16T07:03:13.813Z,4.35
2019-03-16T07:05:40.415Z,14.20
2019-03-16T07:08:06.986Z,8.73
2019-03-16T07:10:33.583Z,6.83
2019-03-16T07:13:00.156Z,7.72
2019-03-16T07:15:26.726Z,6.22
2019-03-16T07:17:53.374Z,6.33
2019-03-16T07:20:19.976Z,9.08
2019-03-16T07:22:46.548Z,9.73
2019-03-16T07:25:13.161Z,11.12
2019-03-16T07:27:39.723Z,11.35
2019-03-16T07:30:06.333Z,13.43
2019-03-16T07:32:32.896Z,7.05
2019-03-16T07:34:59.515Z,9.43
2019-03-16T07:37:26.086Z,9.65
2019-03-16T07:39:53.775Z,11.70
2019-03-16T07:42:20.342Z,5.75
2019-03-16T07:44:47.027Z,11.63
2019-03-16T07:47:13.640Z,6.50
2019-03-16T07:49:40.208Z,5.12
2019-03-16T07:52:06.787Z,6.00
2019-03-16T07:54:33.400Z,9.85
2019-03-16T07:56:59.953Z,13.75
2019-03-16T07:59:26.531Z,9.23
2019-03-16T08:01:53.145Z,14.33
2019-03-16T08:04:19.714Z,9.58
2019-03-16T08:06:46.312Z,10.40
2019-03-16T08:09:12.900Z,9.23
2019-03-16T08:11:39.668Z,10.23
2019-03-16T08:14:06.242Z,10.43
2019-03-16T08:16:32.852Z,10.60
2019-03-16T08:18:59.430Z,5.25
2019-03-16T08:21:26.040Z,4.45
2019-03-16T08:23:53.853Z,7.10
2019-03-16T08:26:20.621Z,9.63
2019-03-16T08:28:47.184Z,7.33
2019-03-16T08:31:13.837Z,7.28
2019-03-16T08:33:40.419Z,10.20
2019-03-16T08:36:07.032Z,13.60
2019-03-16T08:38:33.633Z,7.92
2019-03-16T08:41:00.251Z,6.10
2019-03-16T08:43:26.829Z,10.45
2019-03-16T08:45:53.419Z,8.73
2019-03-16T08:48:23.069Z,7.60
2019-03-16T08:50:48.357Z,8.53
2019-03-16T08:53:14.929Z,11.85
2019-03-16T08:55:41.547Z,6.58
2019-03-16T08:58:08.164Z,8.43
2019-03-16T09:00:34.768Z,9.05
2019-03-16T09:03:01.342Z,9.00
2019-03-16T09:05:27.912Z,10.43
2019-03-16T09:07:54.492Z,11.33
2019-03-16T09:10:21.054Z,8.60
2019-03-16T09:12:54.994Z,8.78
2019-03-16T09:15:15.936Z,5.83
2019-03-16T09:17:42.511Z,8.58
2019-03-16T09:20:09.089Z,7.28
2019-03-16T09:22:35.669Z,10.13
2019-03-16T09:25:02.275Z,7.25
2019-03-16T09:27:31.327Z,12.28
2019-03-16T09:29:57.150Z,8.40
2019-03-16T09:32:23.719Z,15.88
2019-03-16T09:34:50.393Z,9.48
2019-03-16T09:37:16.957Z,11.85
2019-03-16T09:39:43.529Z,7.15
2019-03-16T09:42:10.110Z,6.90
2019-03-16T09:44:36.687Z,11.43
2019-03-16T09:47:03.261Z,9.40
2019-03-16T09:49:29.835Z,11.70
2019-03-16T09:51:56.419Z,12.60
2019-03-16T09:54:22.995Z,12.93
2019-03-16T09:57:00.500Z,11.33
2019-03-16T09:59:17.866Z,8.93
2019-03-16T10:01:44.441Z,11.53
2019-03-16T10:04:11.094Z,9.93
2019-03-16T10:06:37.685Z,8.53
2019-03-16T10:09:04.255Z,8.78
2019-03-16T10:11:30.871Z,7.92
2019-03-16T10:13:57.447Z,13.08
2019-03-16T10:16:24.035Z,10.25
2019-03-16T10:18:50.611Z,9.35
2019-03-16T10:21:18.833Z,12.37
2019-03-16T10:23:45.667Z,9.93
2019-03-16T10:26:12.272Z,6.00
2019-03-16T10:28:43.656Z,9.73
2019-03-16T10:31:07.168Z,10.15
2019-03-16T10:33:33.797Z,7.33
2019-03-16T10:36:00.384Z,9.73
2019-03-16T10:38:26.963Z,8.75
2019-03-16T10:40:53.539Z,10.00
2019-03-16T10:43:20.118Z,8.80
2019-03-16T10:45:46.680Z,5.65
2019-03-16T10:48:13.317Z,7.10
2019-03-16T10:50:40.487Z,5.83
2019-03-16T10:53:07.474Z,6.42
2019-03-16T10:55:34.088Z,9.95
2019-03-16T10:58:00.696Z,12.68
2019-03-16T11:00:27.274Z,11.95
2019-03-16T11:02:53.898Z,11.65
2019-03-16T11:05:20.477Z,13.88
2019-03-16T11:07:47.316Z,13.13
2019-03-16T11:10:13.898Z,9.65
2019-03-16T11:12:40.501Z,8.18
2019-03-16T11:15:07.155Z,8.55
2019-03-16T11:17:33.835Z,86.15
2019-03-16T11:20:00.446Z,11.48
2019-03-16T11:22:27.084Z,13.30
2019-03-16T11:24:53.658Z,11.10
2019-03-16T11:27:20.267Z,7.60
2019-03-16T11:29:46.847Z,14.83
2019-03-16T11:32:15.411Z,12.98
2019-03-16T11:34:41.740Z,10.50
2019-03-16T11:37:08.340Z,9.00
2019-03-16T11:39:34.914Z,12.70
2019-03-16T11:42:01.541Z,15.85
2019-03-16T11:44:28.110Z,9.33
2019-03-16T11:46:54.699Z,14.83
2019-03-16T11:49:21.268Z,13.72
2019-03-16T11:51:47.859Z,15.20
2019-03-16T11:54:14.433Z,8.48
2019-03-16T11:56:41.040Z,11.40
2019-03-16T11:59:07.705Z,6.92
2019-03-16T12:01:34.387Z,7.47
2019-03-16T12:04:00.968Z,7.87
2019-03-16T12:06:27.540Z,4.50
2019-03-16T12:08:54.124Z,7.15
2019-03-16T12:11:20.703Z,9.85
2019-03-16T12:13:47.274Z,5.75
2019-03-16T12:16:13.855Z,12.18
2019-03-16T12:18:40.429Z,6.55
2019-03-16T12:21:07.001Z,10.50
2019-03-16T12:23:34.596Z,11.12
2019-03-16T12:26:01.175Z,7.75
2019-03-16T12:28:27.757Z,9.05
2019-03-16T12:30:54.335Z,10.20
2019-03-16T12:33:20.906Z,9.90
2019-03-16T12:35:47.492Z,9.43
2019-03-16T12:38:14.064Z,10.30
2019-03-16T12:40:40.650Z,13.05
2019-03-16T12:43:07.230Z,12.47
2019-03-16T12:45:33.831Z,15.45
2019-03-16T12:48:00.394Z,10.25
2019-03-16T12:50:27.046Z,15.65
2019-03-16T12:52:53.632Z,12.78
2019-03-16T12:55:20.204Z,14.30
2019-03-16T12:57:48.139Z,12.82
2019-03-16T13:00:15.143Z,6.28
2019-03-16T13:02:41.762Z,15.15
2019-03-16T13:05:08.364Z,15.40
2019-03-16T13:07:34.953Z,14.07
2019-03-16T13:10:01.535Z,16.23
2019-03-16T13:12:28.152Z,10.88
2019-03-16T13:14:54.738Z,8.33
2019-03-16T13:17:21.382Z,5.47
2019-03-16T13:19:47.949Z,9.13
2019-03-16T13:22:14.549Z,8.23
2019-03-16T13:24:41.121Z,10.95
2019-03-16T13:27:08.737Z,11.00
2019-03-16T13:29:37.561Z,11.22
2019-03-16T13:32:04.134Z,9.30
2019-03-16T13:34:30.709Z,8.75
2019-03-16T13:36:57.298Z,11.12
2019-03-16T13:39:23.877Z,11.95
2019-03-16T13:41:50.534Z,12.28
2019-03-16T13:44:17.108Z,11.93
2019-03-16T13:46:43.684Z,10.05
2019-03-16T13:49:10.263Z,17.60
2019-03-16T13:51:36.837Z,12.25
2019-03-16T13:54:03.432Z,7.65
2019-03-16T13:56:30.001Z,13.72
2019-03-16T13:58:56.761Z,11.28
2019-03-16T14:01:23.344Z,11.93
2019-03-16T14:03:49.925Z,14.43
2019-03-16T14:06:16.505Z,16.35
2019-03-16T14:08:43.087Z,20.05
2019-03-16T14:11:09.681Z,14.50
2019-03-16T14:13:36.250Z,13.85
2019-03-16T14:16:03.214Z,12.80
2019-03-16T14:18:29.795Z,12.88
2019-03-16T14:20:56.422Z,13.65
2019-03-16T14:23:23.076Z,11.48
2019-03-16T14:25:49.669Z,8.48
2019-03-16T14:28:16.621Z,15.23
2019-03-16T14:30:45.198Z,13.35
2019-03-16T14:33:11.483Z,12.85
2019-03-16T14:35:38.066Z,7.65
2019-03-16T14:38:04.636Z,13.93
2019-03-16T14:40:31.239Z,12.00
2019-03-16T14:42:57.870Z,13.90
2019-03-16T14:45:24.722Z,9.48
2019-03-16T14:47:51.304Z,13.18
2019-03-16T14:50:17.879Z,17.15
2019-03-16T14:52:44.461Z,18.82
2019-03-16T14:55:11.036Z,13.90
2019-03-16T14:57:37.661Z,22.65
2019-03-16T15:00:04.251Z,18.30
2019-03-16T15:02:30.828Z,18.92
2019-03-16T15:04:57.463Z,12.07
2019-03-16T15:07:24.082Z,15.45
2019-03-16T15:09:50.813Z,16.48
2019-03-16T15:12:17.393Z,17.98
2019-03-16T15:14:44.003Z,19.17
2019-03-16T15:17:10.577Z,17.02
2019-03-16T15:19:37.194Z,15.98
2019-03-16T15:22:03.765Z,11.85
2019-03-16T15:24:30.378Z,16.85
2019-03-16T15:26:56.951Z,18.32
2019-03-16T15:29:23.575Z,17.07
2019-03-16T15:31:50.147Z,17.23
2019-03-16T15:34:18.631Z,24.37
2019-03-16T15:36:45.235Z,25.30
2019-03-16T15:39:11.904Z,19.80
2019-03-16T15:41:38.510Z,22.37
2019-03-16T15:44:05.197Z,18.73
2019-03-16T15:46:31.757Z,27.52
2019-03-16T15:48:58.368Z,24.70
2019-03-16T15:51:24.951Z,32.25
2019-03-16T15:53:51.560Z,28.42
2019-03-16T15:56:18.219Z,37.48
2019-03-16T15:58:45.014Z,26.73
2019-03-16T16:01:11.596Z,27.07
2019-03-16T16:03:38.219Z,24.52
2019-03-16T16:06:06.868Z,29.92
2019-03-16T16:08:33.550Z,24.55
2019-03-16T16:11:01.436Z,26.00
2019-03-16T16:13:28.270Z,23.87
2019-03-16T16:15:54.850Z,25.85
2019-03-16T16:18:22.443Z,30.15
2019-03-16T16:20:49.063Z,30.40
2019-03-16T16:23:17.489Z,27.85
2019-03-16T16:25:44.062Z,23.15
2019-03-16T16:28:10.870Z,24.67
2019-03-16T16:30:37.611Z,17.20
2019-03-16T16:33:04.182Z,15.15
2019-03-16T16:35:30.771Z,17.37
2019-03-16T16:37:57.354Z,19.07
2019-03-16T16:40:23.930Z,17.00
2019-03-16T16:42:50.499Z,18.95
2019-03-16T16:45:17.083Z,17.07
2019-03-16T16:47:43.660Z,25.08
2019-03-16T16:50:10.257Z,22.35
2019-03-16T16:52:36.824Z,25.52
2019-03-16T16:55:03.425Z,32.83
2019-03-16T16:57:30.010Z,37.08
2019-03-16T16:59:58.424Z,45.88
2019-03-16T17:02:24.926Z,51.75
2019-03-16T17:04:51.529Z,63.65
2019-03-16T17:07:18.098Z,50.15
2019-03-16T17:09:44.702Z,53.55
2019-03-16T17:12:11.280Z,49.13
2019-03-16T17:14:37.924Z,64.15
2019-03-16T17:17:04.587Z,69.87
2019-03-16T17:19:31.256Z,76.25
2019-03-16T17:21:58.902Z,86.17
2019-03-16T17:24:25.514Z,97.85
2019-03-16T17:26:52.084Z,84.95
2019-03-16T17:29:18.781Z,83.70
2019-03-16T17:31:45.366Z,73.15
2019-03-16T17:34:11.985Z,70.28
2019-03-16T17:36:38.563Z,43.00
2019-03-16T17:39:05.173Z,40.00
2019-03-16T17:41:31.744Z,33.40
2019-03-16T17:43:58.374Z,36.03
2019-03-16T17:46:24.944Z,21.77
2019-03-16T17:48:51.549Z,24.18
2019-03-16T17:51:18.123Z,23.07
2019-03-16T17:53:46.898Z,24.65
2019-03-16T17:56:13.034Z,24.95
2019-03-16T17:58:39.606Z,23.75
2019-03-16T18:01:06.179Z,24.50
2019-03-16T18:03:32.747Z,22.55
2019-03-16T18:05:59.324Z,26.33
2019-03-16T18:08:26.073Z,21.02
2019-03-16T18:10:52.638Z,18.45
2019-03-16T18:13:19.222Z,20.90
2019-03-16T18:15:45.804Z,18.77
2019-03-16T18:18:12.373Z,19.12
2019-03-16T18:20:38.957Z,19.25
2019-03-16T18:23:05.570Z,19.75
2019-03-16T18:25:32.195Z,16.05
2019-03-16T18:27:58.776Z,17.73
2019-03-16T18:30:25.416Z,15.95
2019-03-16T18:32:52.006Z,18.15
2019-03-16T18:35:18.579Z,14.78
2019-03-16T18:37:45.158Z,17.42
2019-03-16T18:40:11.782Z,14.60
2019-03-16T18:42:38.342Z,16.52
2019-03-16T18:45:05.997Z,17.87
2019-03-16T18:47:32.630Z,19.42
2019-03-16T18:49:59.298Z,20.25
2019-03-16T18:52:25.900Z,22.77
2019-03-16T18:54:52.499Z,29.00
2019-03-16T18:57:19.077Z,16.95
2019-03-16T18:59:45.703Z,21.70
2019-03-16T19:02:20.582Z,19.32
2019-03-16T19:04:40.626Z,19.80
2019-03-16T19:07:07.288Z,15.32
2019-03-16T19:09:34.016Z,13.35
2019-03-16T19:12:00.601Z,16.35
2019-03-16T19:14:27.209Z,16.30
2019-03-16T19:16:53.773Z,17.77
2019-03-16T19:19:20.375Z,20.12
2019-03-16T19:21:47.277Z,24.55
2019-03-16T19:24:15.741Z,17.98
2019-03-16T19:26:42.318Z,14.28
2019-03-16T19:29:08.888Z,17.45
2019-03-16T19:31:35.457Z,13.13
2019-03-16T19:34:02.036Z,14.50
2019-03-16T19:36:28.614Z,16.45
2019-03-16T19:38:55.182Z,12.95
2019-03-16T19:41:22.738Z,16.82
2019-03-16T19:43:50.433Z,13.65
2019-03-16T19:46:17.192Z,19.12
2019-03-16T19:48:43.770Z,15.43
2019-03-16T19:51:10.349Z,12.35
2019-03-16T19:53:36.940Z,13.62
2019-03-16T19:56:03.493Z,13.05
2019-03-16T19:58:30.163Z,14.53
2019-03-16T20:00:56.847Z,19.52
2019-03-16T20:03:23.421Z,15.65
2019-03-16T20:05:49.995Z,20.45
2019-03-16T20:08:16.594Z,23.67
2019-03-16T20:10:43.153Z,18.87
2019-03-16T20:13:09.724Z,23.57
2019-03-16T20:15:36.389Z,23.90
2019-03-16T20:18:02.958Z,21.15
2019-03-16T20:20:29.547Z,22.98
2019-03-16T20:22:56.106Z,22.77
2019-03-16T20:25:22.690Z,19.65
2019-03-16T20:27:49.258Z,22.70
2019-03-16T20:30:15.875Z,21.33
2019-03-16T20:32:42.447Z,18.67
2019-03-16T20:35:09.053Z,20.92
2019-03-16T20:37:35.620Z,22.80
2019-03-16T20:40:02.217Z,21.55
2019-03-16T20:42:28.781Z,22.05
2019-03-16T20:44:55.386Z,22.00
2019-03-16T20:47:21.954Z,25.37
2019-03-16T20:49:51.971Z,19.67
2019-03-16T20:52:18.569Z,21.52
2019-03-16T20:54:45.143Z,23.85
2019-03-16T20:57:11.720Z,20.80
2019-03-16T20:59:38.296Z,20.45
2019-03-16T21:02:04.876Z,31.77
2019-03-16T21:04:31.454Z,33.73
2019-03-16T21:06:58.027Z,42.75
2019-03-16T21:09:24.637Z,51.23
2019-03-16T21:11:51.211Z,50.88
2019-03-16T21:14:17.794Z,49.27
2019-03-16T21:16:44.349Z,42.05
2019-03-16T21:19:10.921Z,45.78
2019-03-16T21:21:37.506Z,44.63
2019-03-16T21:24:04.076Z,44.85
2019-03-16T21:26:30.655Z,45.15
2019-03-16T21:28:57.233Z,29.80
2019-03-16T21:31:23.805Z,26.93
2019-03-16T21:33:50.373Z,28.25
2019-03-16T21:36:16.989Z,27.20
2019-03-16T21:38:43.574Z,27.73
2019-03-16T21:41:10.183Z,22.70
2019-03-16T21:43:36.757Z,27.58
2019-03-16T21:46:03.376Z,23.22
2019-03-16T21:48:29.957Z,21.00
2019-03-16T21:50:56.557Z,24.30
2019-03-16T21:53:32.313Z,19.85
2019-03-16T21:55:58.989Z,23.07
2019-03-16T21:58:25.554Z,18.92
2019-03-16T22:00:53.183Z,19.90
2019-03-16T22:03:19.751Z,23.80
2019-03-16T22:05:46.342Z,16.77
2019-03-16T22:08:12.918Z,25.48
2019-03-16T22:10:39.521Z,18.92
2019-03-16T22:13:06.101Z,20.02
2019-03-16T22:15:32.724Z,18.10
2019-03-16T22:17:59.297Z,20.23
2019-03-16T22:20:25.907Z,24.12
2019-03-16T22:22:52.491Z,21.65
2019-03-16T22:25:19.061Z,20.32
2019-03-16T22:27:45.676Z,18.45
2019-03-16T22:30:12.241Z,15.00
2019-03-16T22:32:38.813Z,17.82
2019-03-16T22:35:08.900Z,16.57
2019-03-16T22:37:34.809Z,12.63
2019-03-16T22:40:01.388Z,14.47
2019-03-16T22:42:27.955Z,15.88
2019-03-16T22:44:54.605Z,14.60
2019-03-16T22:47:21.188Z,17.17
2019-03-16T22:49:47.754Z,16.35
2019-03-16T22:52:14.316Z,11.85
2019-03-16T22:54:40.903Z,17.62
2019-03-16T22:57:07.467Z,13.20
2019-03-16T22:59:34.089Z,16.67
2019-03-16T23:02:00.664Z,17.50
2019-03-16T23:04:27.230Z,14.30
2019-03-16T23:06:53.811Z,13.83
2019-03-16T23:09:20.387Z,18.67
2019-03-16T23:11:46.967Z,13.68
2019-03-16T23:14:13.544Z,15.25
2019-03-16T23:16:40.119Z,14.95
2019-03-16T23:19:06.694Z,20.20
2019-03-16T23:21:33.345Z,15.28
2019-03-16T23:23:59.999Z,13.15
2019-03-16T23:26:37.745Z,14.78
2019-03-16T23:28:54.913Z,11.70
2019-03-16T23:31:21.528Z,18.27
2019-03-16T23:33:48.097Z,12.45
2019-03-16T23:36:14.813Z,15.35
2019-03-16T23:38:41.389Z,11.43
2019-03-16T23:41:07.980Z,12.37
2019-03-16T23:43:34.560Z,12.82
2019-03-16T23:46:01.135Z,12.25
2019-03-16T23:48:27.711Z,12.40
2019-03-16T23:50:54.361Z,8.95
2019-03-16T23:53:20.942Z,11.45
2019-03-16T23:55:47.514Z,9.80
2019-03-16T23:58:14.094Z,15.30
